sensor_id;sensor_type;location;lat;lon;timestamp;pressure;altitude;pressure_sealevel;temperature;humidity
79136;BME280;68533;51.090;17.216;2023-03-24T00:01:54;99517.41;;;11.21;70.20
79136;BME280;68533;51.090;17.216;2023-03-24T00:04:21;99511.34;;;11.11;70.42
79136;BME280;68533;51.090;17.216;2023-03-24T00:06:51;99519.94;;;10.96;71.26
79136;BME280;68533;51.090;17.216;2023-03-24T00:09:18;99514.03;;;10.75;72.20
79136;BME280;68533;51.090;17.216;2023-03-24T00:11:45;99519.06;;;10.59;72.98
79136;BME280;68533;51.090;17.216;2023-03-24T00:14:15;99507.56;;;10.43;73.12
79136;BME280;68533;51.090;17.216;2023-03-24T00:16:42;99505.69;;;10.39;73.30
79136;BME280;68533;51.090;17.216;2023-03-24T00:19:10;99509.38;;;10.34;73.90
79136;BME280;68533;51.090;17.216;2023-03-24T00:21:41;99503.88;;;10.34;73.34
79136;BME280;68533;51.090;17.216;2023-03-24T00:24:11;99509.88;;;10.50;72.77
79136;BME280;68533;51.090;17.216;2023-03-24T00:26:39;99501.00;;;10.80;71.63
79136;BME280;68533;51.090;17.216;2023-03-24T00:29:07;99500.38;;;10.83;71.23
79136;BME280;68533;51.090;17.216;2023-03-24T00:31:34;99495.31;;;10.77;71.62
79136;BME280;68533;51.090;17.216;2023-03-24T00:34:05;99491.22;;;10.88;71.33
79136;BME280;68533;51.090;17.216;2023-03-24T00:36:35;99480.81;;;10.85;71.37
79136;BME280;68533;51.090;17.216;2023-03-24T00:39:03;99484.81;;;10.79;71.67
79136;BME280;68533;51.090;17.216;2023-03-24T00:41:31;99490.31;;;10.79;71.81
79136;BME280;68533;51.090;17.216;2023-03-24T00:43:58;99485.13;;;10.77;71.54
79136;BME280;68533;51.090;17.216;2023-03-24T00:46:26;99485.53;;;10.71;72.21
79136;BME280;68533;51.090;17.216;2023-03-24T00:49:04;99467.63;;;10.73;71.84
79136;BME280;68533;51.090;17.216;2023-03-24T00:51:37;99468.31;;;10.79;72.18
79136;BME280;68533;51.090;17.216;2023-03-24T00:54:05;99470.94;;;10.84;71.55
79136;BME280;68533;51.090;17.216;2023-03-24T00:56:33;99460.97;;;10.88;71.44
79136;BME280;68533;51.090;17.216;2023-03-24T00:59:01;99457.47;;;10.96;71.38
79136;BME280;68533;51.090;17.216;2023-03-24T01:01:32;99455.13;;;11.03;70.83
79136;BME280;68533;51.090;17.216;2023-03-24T01:04:00;99452.25;;;11.08;70.88
79136;BME280;68533;51.090;17.216;2023-03-24T01:06:27;99450.81;;;11.11;70.86
79136;BME280;68533;51.090;17.216;2023-03-24T01:08:56;99444.13;;;11.03;70.85
79136;BME280;68533;51.090;17.216;2023-03-24T01:11:24;99441.38;;;11.03;70.94
79136;BME280;68533;51.090;17.216;2023-03-24T01:13:51;99429.94;;;11.10;70.62
79136;BME280;68533;51.090;17.216;2023-03-24T01:16:22;99429.16;;;10.96;71.27
79136;BME280;68533;51.090;17.216;2023-03-24T01:18:50;99433.34;;;10.93;71.33
79136;BME280;68533;51.090;17.216;2023-03-24T01:21:17;99430.72;;;10.88;71.51
79136;BME280;68533;51.090;17.216;2023-03-24T01:23:43;99430.41;;;10.76;71.67
79136;BME280;68533;51.090;17.216;2023-03-24T01:26:10;99428.31;;;10.73;72.24
79136;BME280;68533;51.090;17.216;2023-03-24T01:28:36;99427.88;;;10.79;72.25
79136;BME280;68533;51.090;17.216;2023-03-24T01:31:08;99425.63;;;10.81;72.32
79136;BME280;68533;51.090;17.216;2023-03-24T01:33:36;99419.28;;;10.95;71.86
79136;BME280;68533;51.090;17.216;2023-03-24T01:36:03;99423.84;;;11.21;70.62
79136;BME280;68533;51.090;17.216;2023-03-24T01:38:30;99414.03;;;11.29;70.40
79136;BME280;68533;51.090;17.216;2023-03-24T01:40:57;99417.09;;;11.27;70.48
79136;BME280;68533;51.090;17.216;2023-03-24T01:43:26;99419.28;;;11.39;69.77
79136;BME280;68533;51.090;17.216;2023-03-24T01:48:53;99412.75;;;11.57;69.07
79136;BME280;68533;51.090;17.216;2023-03-24T01:51:33;99410.38;;;11.64;69.00
79136;BME280;68533;51.090;17.216;2023-03-24T01:54:03;99417.19;;;11.67;68.56
79136;BME280;68533;51.090;17.216;2023-03-24T01:56:35;99418.00;;;11.67;68.58
79136;BME280;68533;51.090;17.216;2023-03-24T01:59:09;99414.63;;;11.71;68.57
79136;BME280;68533;51.090;17.216;2023-03-24T02:01:38;99406.69;;;11.69;68.70
79136;BME280;68533;51.090;17.216;2023-03-24T02:04:05;99403.63;;;11.71;68.74
79136;BME280;68533;51.090;17.216;2023-03-24T02:06:34;99401.56;;;11.76;68.03
79136;BME280;68533;51.090;17.216;2023-03-24T02:09:02;99401.25;;;11.78;68.12
79136;BME280;68533;51.090;17.216;2023-03-24T02:11:31;99392.19;;;11.77;67.77
79136;BME280;68533;51.090;17.216;2023-03-24T02:13:58;99383.09;;;11.77;67.72
79136;BME280;68533;51.090;17.216;2023-03-24T02:20:27;99380.69;;;11.84;67.71
79136;BME280;68533;51.090;17.216;2023-03-24T02:44:10;99371.41;;;12.19;65.93
79136;BME280;68533;51.090;17.216;2023-03-24T02:46:47;99372.38;;;12.23;65.28
79136;BME280;68533;51.090;17.216;2023-03-24T02:49:45;99367.69;;;12.24;65.81
79136;BME280;68533;51.090;17.216;2023-03-24T02:55:05;99365.22;;;12.05;66.89
79136;BME280;68533;51.090;17.216;2023-03-24T02:57:51;99360.81;;;11.95;67.45
79136;BME280;68533;51.090;17.216;2023-03-24T03:03:20;99364.47;;;11.82;68.84
79136;BME280;68533;51.090;17.216;2023-03-24T03:06:22;99363.81;;;11.77;68.92
79136;BME280;68533;51.090;17.216;2023-03-24T03:08:54;99358.09;;;11.73;69.91
79136;BME280;68533;51.090;17.216;2023-03-24T03:11:22;99354.31;;;11.60;70.51
79136;BME280;68533;51.090;17.216;2023-03-24T03:17:17;99357.72;;;11.35;72.78
79136;BME280;68533;51.090;17.216;2023-03-24T03:19:31;99347.91;;;11.20;73.93
79136;BME280;68533;51.090;17.216;2023-03-24T03:22:01;99355.06;;;11.21;74.31
79136;BME280;68533;51.090;17.216;2023-03-24T03:24:37;99356.09;;;11.03;74.76
79136;BME280;68533;51.090;17.216;2023-03-24T03:27:09;99352.06;;;10.87;75.66
79136;BME280;68533;51.090;17.216;2023-03-24T03:29:46;99345.75;;;10.86;76.40
79136;BME280;68533;51.090;17.216;2023-03-24T03:32:23;99351.38;;;10.81;76.32
79136;BME280;68533;51.090;17.216;2023-03-24T03:35:19;99344.41;;;10.62;77.68
79136;BME280;68533;51.090;17.216;2023-03-24T03:43:12;99345.59;;;10.69;77.45
79136;BME280;68533;51.090;17.216;2023-03-24T03:45:37;99352.06;;;10.65;77.52
79136;BME280;68533;51.090;17.216;2023-03-24T03:48:04;99350.59;;;10.67;77.80
79136;BME280;68533;51.090;17.216;2023-03-24T03:50:32;99345.22;;;10.62;77.71
79136;BME280;68533;51.090;17.216;2023-03-24T03:52:59;99335.84;;;10.63;77.96
79136;BME280;68533;51.090;17.216;2023-03-24T03:55:26;99334.91;;;10.68;77.82
79136;BME280;68533;51.090;17.216;2023-03-24T03:57:53;99333.25;;;10.80;76.98
79136;BME280;68533;51.090;17.216;2023-03-24T04:00:22;99328.81;;;10.71;77.37
79136;BME280;68533;51.090;17.216;2023-03-24T04:05:58;99332.53;;;10.75;77.26
79136;BME280;68533;51.090;17.216;2023-03-24T04:24:50;99314.69;;;10.86;76.17
79136;BME280;68533;51.090;17.216;2023-03-24T04:27:44;99314.25;;;10.93;76.00
79136;BME280;68533;51.090;17.216;2023-03-24T04:30:30;99317.81;;;10.93;76.09
79136;BME280;68533;51.090;17.216;2023-03-24T04:33:03;99310.06;;;10.95;75.78
79136;BME280;68533;51.090;17.216;2023-03-24T04:35:34;99303.63;;;11.00;75.83
79136;BME280;68533;51.090;17.216;2023-03-24T04:38:09;99306.88;;;11.02;74.73
79136;BME280;68533;51.090;17.216;2023-03-24T04:40:39;99309.31;;;11.03;75.27
79136;BME280;68533;51.090;17.216;2023-03-24T04:43:12;99301.88;;;11.04;74.79
79136;BME280;68533;51.090;17.216;2023-03-24T04:45:43;99306.13;;;11.10;74.50
79136;BME280;68533;51.090;17.216;2023-03-24T04:48:23;99297.66;;;11.06;74.64
79136;BME280;68533;51.090;17.216;2023-03-24T04:50:56;99307.69;;;11.02;74.84
79136;BME280;68533;51.090;17.216;2023-03-24T04:53:29;99304.78;;;11.07;74.73
79136;BME280;68533;51.090;17.216;2023-03-24T04:58:35;99294.28;;;11.09;74.87
79136;BME280;68533;51.090;17.216;2023-03-24T05:01:02;99294.16;;;11.14;74.71
79136;BME280;68533;51.090;17.216;2023-03-24T05:03:30;99293.91;;;11.24;74.09
79136;BME280;68533;51.090;17.216;2023-03-24T05:06:06;99289.50;;;11.23;73.93
79136;BME280;68533;51.090;17.216;2023-03-24T05:08:35;99284.00;;;11.23;73.95
79136;BME280;68533;51.090;17.216;2023-03-24T05:11:01;99287.38;;;11.20;74.42
79136;BME280;68533;51.090;17.216;2023-03-24T05:13:35;99283.19;;;11.23;73.97
79136;BME280;68533;51.090;17.216;2023-03-24T05:16:04;99278.72;;;11.36;73.48
79136;BME280;68533;51.090;17.216;2023-03-24T05:18:31;99280.03;;;11.38;73.41
79136;BME280;68533;51.090;17.216;2023-03-24T05:21:11;99278.59;;;11.41;73.67
79136;BME280;68533;51.090;17.216;2023-03-24T05:24:09;99282.66;;;11.43;73.34
79136;BME280;68533;51.090;17.216;2023-03-24T05:26:47;99289.97;;;11.48;73.57
79136;BME280;68533;51.090;17.216;2023-03-24T05:29:13;99282.84;;;11.47;73.54
79136;BME280;68533;51.090;17.216;2023-03-24T05:31:41;99282.22;;;11.58;72.80
79136;BME280;68533;51.090;17.216;2023-03-24T05:34:12;99291.34;;;11.67;72.46
79136;BME280;68533;51.090;17.216;2023-03-24T05:36:42;99282.91;;;11.73;72.29
79136;BME280;68533;51.090;17.216;2023-03-24T05:39:09;99273.75;;;11.77;72.19
79136;BME280;68533;51.090;17.216;2023-03-24T05:41:40;99283.97;;;11.85;71.98
79136;BME280;68533;51.090;17.216;2023-03-24T05:44:10;99281.56;;;11.92;71.82
79136;BME280;68533;51.090;17.216;2023-03-24T05:46:38;99283.03;;;11.98;71.46
79136;BME280;68533;51.090;17.216;2023-03-24T05:49:06;99279.16;;;11.99;71.35
79136;BME280;68533;51.090;17.216;2023-03-24T05:51:32;99285.97;;;12.11;71.47
79136;BME280;68533;51.090;17.216;2023-03-24T05:54:01;99285.16;;;12.19;70.82
79136;BME280;68533;51.090;17.216;2023-03-24T05:56:31;99278.53;;;12.20;71.14
79136;BME280;68533;51.090;17.216;2023-03-24T05:58:57;99279.34;;;12.20;70.86
79136;BME280;68533;51.090;17.216;2023-03-24T06:01:26;99275.78;;;12.20;71.02
79136;BME280;68533;51.090;17.216;2023-03-24T06:03:53;99268.97;;;12.26;70.12
79136;BME280;68533;51.090;17.216;2023-03-24T06:06:21;99273.19;;;12.32;69.95
79136;BME280;68533;51.090;17.216;2023-03-24T06:08:59;99282.09;;;12.37;70.25
79136;BME280;68533;51.090;17.216;2023-03-24T06:11:27;99274.50;;;12.43;69.66
79136;BME280;68533;51.090;17.216;2023-03-24T06:13:54;99279.50;;;12.41;69.79
79136;BME280;68533;51.090;17.216;2023-03-24T06:16:28;99274.97;;;12.45;69.45
79136;BME280;68533;51.090;17.216;2023-03-24T06:18:56;99274.50;;;12.43;69.62
79136;BME280;68533;51.090;17.216;2023-03-24T06:21:22;99266.38;;;12.47;69.42
79136;BME280;68533;51.090;17.216;2023-03-24T06:23:55;99269.31;;;12.50;69.92
79136;BME280;68533;51.090;17.216;2023-03-24T06:26:24;99267.50;;;12.54;69.50
79136;BME280;68533;51.090;17.216;2023-03-24T06:28:51;99275.16;;;12.66;69.24
79136;BME280;68533;51.090;17.216;2023-03-24T06:31:18;99262.16;;;12.66;69.06
79136;BME280;68533;51.090;17.216;2023-03-24T06:33:47;99265.25;;;12.73;68.52
79136;BME280;68533;51.090;17.216;2023-03-24T06:36:13;99276.28;;;12.73;69.58
79136;BME280;68533;51.090;17.216;2023-03-24T06:38:40;99270.75;;;12.73;68.81
79136;BME280;68533;51.090;17.216;2023-03-24T06:41:07;99279.81;;;12.82;68.90
79136;BME280;68533;51.090;17.216;2023-03-24T06:43:34;99276.25;;;12.82;68.88
79136;BME280;68533;51.090;17.216;2023-03-24T06:46:00;99270.09;;;12.85;69.03
79136;BME280;68533;51.090;17.216;2023-03-24T06:48:26;99271.06;;;12.89;69.13
79136;BME280;68533;51.090;17.216;2023-03-24T06:50:55;99268.44;;;12.93;68.93
79136;BME280;68533;51.090;17.216;2023-03-24T06:53:21;99263.56;;;12.98;68.81
79136;BME280;68533;51.090;17.216;2023-03-24T06:55:48;99270.69;;;12.99;69.03
79136;BME280;68533;51.090;17.216;2023-03-24T06:58:16;99271.69;;;13.03;68.62
79136;BME280;68533;51.090;17.216;2023-03-24T07:00:43;99270.03;;;13.11;68.09
79136;BME280;68533;51.090;17.216;2023-03-24T07:03:11;99272.78;;;13.19;67.55
79136;BME280;68533;51.090;17.216;2023-03-24T07:05:40;99269.88;;;13.07;68.50
79136;BME280;68533;51.090;17.216;2023-03-24T07:08:06;99264.69;;;13.14;68.08
79136;BME280;68533;51.090;17.216;2023-03-24T07:10:38;99268.22;;;13.32;67.92
79136;BME280;68533;51.090;17.216;2023-03-24T07:13:05;99267.91;;;13.34;67.92
79136;BME280;68533;51.090;17.216;2023-03-24T07:15:31;99272.25;;;13.35;68.52
79136;BME280;68533;51.090;17.216;2023-03-24T07:17:58;99268.97;;;13.41;69.13
79136;BME280;68533;51.090;17.216;2023-03-24T07:20:24;99261.22;;;13.35;69.06
79136;BME280;68533;51.090;17.216;2023-03-24T07:22:56;99268.53;;;13.31;69.14
79136;BME280;68533;51.090;17.216;2023-03-24T07:25:23;99271.34;;;13.22;70.28
79136;BME280;68533;51.090;17.216;2023-03-24T07:27:53;99267.28;;;13.11;71.24
79136;BME280;68533;51.090;17.216;2023-03-24T07:30:29;99261.94;;;13.14;68.87
79136;BME280;68533;51.090;17.216;2023-03-24T07:32:55;99271.84;;;13.15;70.21
79136;BME280;68533;51.090;17.216;2023-03-24T07:35:22;99263.06;;;13.05;71.22
79136;BME280;68533;51.090;17.216;2023-03-24T07:37:50;99266.19;;;12.95;72.12
79136;BME280;68533;51.090;17.216;2023-03-24T07:40:17;99262.63;;;12.86;71.94
79136;BME280;68533;51.090;17.216;2023-03-24T07:42:43;99257.78;;;12.74;74.06
79136;BME280;68533;51.090;17.216;2023-03-24T07:45:12;99267.66;;;12.75;74.52
79136;BME280;68533;51.090;17.216;2023-03-24T07:47:42;99262.47;;;12.73;74.12
79136;BME280;68533;51.090;17.216;2023-03-24T07:50:09;99263.13;;;12.62;74.74
79136;BME280;68533;51.090;17.216;2023-03-24T07:52:37;99263.47;;;12.52;76.68
79136;BME280;68533;51.090;17.216;2023-03-24T07:55:06;99261.19;;;12.45;76.45
79136;BME280;68533;51.090;17.216;2023-03-24T07:57:33;99267.66;;;12.40;76.65
79136;BME280;68533;51.090;17.216;2023-03-24T08:00:09;99256.94;;;12.30;77.14
79136;BME280;68533;51.090;17.216;2023-03-24T08:02:55;99256.94;;;12.30;76.78
79136;BME280;68533;51.090;17.216;2023-03-24T08:05:23;99255.19;;;12.26;77.36
79136;BME280;68533;51.090;17.216;2023-03-24T08:07:52;99250.47;;;12.26;77.76
79136;BME280;68533;51.090;17.216;2023-03-24T08:10:21;99239.13;;;12.19;77.83
79136;BME280;68533;51.090;17.216;2023-03-24T08:12:48;99240.25;;;12.10;77.56
79136;BME280;68533;51.090;17.216;2023-03-24T08:15:14;99231.50;;;12.16;77.23
79136;BME280;68533;51.090;17.216;2023-03-24T08:17:41;99219.00;;;12.10;78.50
79136;BME280;68533;51.090;17.216;2023-03-24T08:20:10;99218.38;;;12.13;78.60
79136;BME280;68533;51.090;17.216;2023-03-24T08:22:41;99214.81;;;12.13;78.16
79136;BME280;68533;51.090;17.216;2023-03-24T08:25:09;99212.88;;;12.13;77.45
79136;BME280;68533;51.090;17.216;2023-03-24T08:27:38;99216.25;;;12.19;77.27
79136;BME280;68533;51.090;17.216;2023-03-24T08:30:07;99223.09;;;12.30;76.96
79136;BME280;68533;51.090;17.216;2023-03-24T08:32:35;99229.88;;;12.41;75.92
79136;BME280;68533;51.090;17.216;2023-03-24T08:35:02;99218.53;;;12.51;76.48
79136;BME280;68533;51.090;17.216;2023-03-24T08:37:30;99216.06;;;12.75;74.79
79136;BME280;68533;51.090;17.216;2023-03-24T08:39:58;99220.72;;;13.01;73.18
79136;BME280;68533;51.090;17.216;2023-03-24T08:42:31;99207.09;;;13.42;72.00
79136;BME280;68533;51.090;17.216;2023-03-24T08:44:57;99211.88;;;14.33;68.41
79136;BME280;68533;51.090;17.216;2023-03-24T08:47:28;99197.97;;;15.20;65.59
79136;BME280;68533;51.090;17.216;2023-03-24T08:49:56;99206.31;;;15.32;64.28
79136;BME280;68533;51.090;17.216;2023-03-24T08:52:23;99199.03;;;15.52;63.90
79136;BME280;68533;51.090;17.216;2023-03-24T08:54:55;99194.41;;;15.20;64.53
79136;BME280;68533;51.090;17.216;2023-03-24T08:57:25;99194.16;;;15.12;64.83
79136;BME280;68533;51.090;17.216;2023-03-24T08:59:52;99181.97;;;15.26;62.94
79136;BME280;68533;51.090;17.216;2023-03-24T09:02:18;99181.59;;;15.03;63.24
79136;BME280;68533;51.090;17.216;2023-03-24T09:04:47;99179.72;;;14.95;63.68
79136;BME280;68533;51.090;17.216;2023-03-24T09:07:17;99176.81;;;14.79;64.15
79136;BME280;68533;51.090;17.216;2023-03-24T09:09:45;99177.47;;;14.76;64.59
79136;BME280;68533;51.090;17.216;2023-03-24T09:12:12;99168.72;;;14.74;65.13
79136;BME280;68533;51.090;17.216;2023-03-24T09:14:38;99161.69;;;14.76;64.78
79136;BME280;68533;51.090;17.216;2023-03-24T09:17:05;99168.84;;;14.77;65.15
79136;BME280;68533;51.090;17.216;2023-03-24T09:19:33;99159.28;;;14.87;64.67
79136;BME280;68533;51.090;17.216;2023-03-24T09:22:01;99162.88;;;15.00;64.17
79136;BME280;68533;51.090;17.216;2023-03-24T09:24:28;99155.16;;;15.05;63.64
79136;BME280;68533;51.090;17.216;2023-03-24T09:26:57;99153.09;;;15.14;63.80
79136;BME280;68533;51.090;17.216;2023-03-24T09:29:23;99149.28;;;15.19;63.64
79136;BME280;68533;51.090;17.216;2023-03-24T09:31:49;99146.50;;;15.19;63.41
79136;BME280;68533;51.090;17.216;2023-03-24T09:34:17;99148.03;;;15.41;63.34
79136;BME280;68533;51.090;17.216;2023-03-24T09:36:43;99141.09;;;15.47;62.60
79136;BME280;68533;51.090;17.216;2023-03-24T09:39:12;99137.28;;;15.51;62.80
79136;BME280;68533;51.090;17.216;2023-03-24T09:41:45;99136.13;;;15.77;62.09
79136;BME280;68533;51.090;17.216;2023-03-24T09:47:04;99136.09;;;16.29;61.44
79136;BME280;68533;51.090;17.216;2023-03-24T09:49:40;99124.28;;;16.32;61.00
79136;BME280;68533;51.090;17.216;2023-03-24T09:52:26;99114.31;;;16.43;59.91
79136;BME280;68533;51.090;17.216;2023-03-24T09:54:58;99114.03;;;16.48;59.35
79136;BME280;68533;51.090;17.216;2023-03-24T10:00:22;99114.28;;;16.71;56.23
79136;BME280;68533;51.090;17.216;2023-03-24T10:02:52;99115.91;;;16.72;57.33
79136;BME280;68533;51.090;17.216;2023-03-24T10:05:28;99115.56;;;16.74;57.74
79136;BME280;68533;51.090;17.216;2023-03-24T10:08:28;99119.22;;;16.78;57.89
79136;BME280;68533;51.090;17.216;2023-03-24T10:11:24;99111.06;;;16.85;56.64
79136;BME280;68533;51.090;17.216;2023-03-24T10:13:59;99102.75;;;16.85;55.96
79136;BME280;68533;51.090;17.216;2023-03-24T10:21:40;99097.66;;;17.02;55.70
79136;BME280;68533;51.090;17.216;2023-03-24T10:24:19;99097.34;;;17.23;54.81
79136;BME280;68533;51.090;17.216;2023-03-24T10:26:59;99082.88;;;17.65;52.38
79136;BME280;68533;51.090;17.216;2023-03-24T10:29:30;99074.84;;;17.98;51.79
79136;BME280;68533;51.090;17.216;2023-03-24T10:34:45;99085.06;;;18.94;50.01
79136;BME280;68533;51.090;17.216;2023-03-24T10:37:14;99090.00;;;18.81;49.06
79136;BME280;68533;51.090;17.216;2023-03-24T10:39:42;99086.16;;;18.67;49.57
79136;BME280;68533;51.090;17.216;2023-03-24T10:42:13;99075.75;;;18.64;49.64
79136;BME280;68533;51.090;17.216;2023-03-24T10:44:40;99071.44;;;18.47;49.96
79136;BME280;68533;51.090;17.216;2023-03-24T10:47:09;99063.19;;;18.31;49.57
79136;BME280;68533;51.090;17.216;2023-03-24T10:50:01;99073.97;;;18.75;49.89
79136;BME280;68533;51.090;17.216;2023-03-24T10:52:42;99073.53;;;18.73;48.76
79136;BME280;68533;51.090;17.216;2023-03-24T10:55:18;99067.25;;;19.25;46.70
79136;BME280;68533;51.090;17.216;2023-03-24T10:57:47;99062.03;;;19.23;45.31
79136;BME280;68533;51.090;17.216;2023-03-24T11:00:22;99064.41;;;19.74;45.48
79136;BME280;68533;51.090;17.216;2023-03-24T11:03:06;99063.66;;;19.24;44.35
79136;BME280;68533;51.090;17.216;2023-03-24T11:05:36;99060.97;;;18.82;44.87
79136;BME280;68533;51.090;17.216;2023-03-24T11:10:44;99054.84;;;18.31;45.45
79136;BME280;68533;51.090;17.216;2023-03-24T11:13:40;99062.63;;;18.22;46.34
79136;BME280;68533;51.090;17.216;2023-03-24T11:16:15;99063.03;;;18.24;47.05
79136;BME280;68533;51.090;17.216;2023-03-24T11:19:03;99051.25;;;18.31;46.29
79136;BME280;68533;51.090;17.216;2023-03-24T11:21:33;99051.78;;;18.36;46.23
79136;BME280;68533;51.090;17.216;2023-03-24T11:24:11;99054.31;;;18.45;45.90
79136;BME280;68533;51.090;17.216;2023-03-24T11:26:58;99052.56;;;18.56;45.59
79136;BME280;68533;51.090;17.216;2023-03-24T11:29:38;99047.84;;;18.60;45.89
79136;BME280;68533;51.090;17.216;2023-03-24T11:32:15;99044.63;;;18.39;46.59
79136;BME280;68533;51.090;17.216;2023-03-24T11:34:45;99051.25;;;18.31;45.98
79136;BME280;68533;51.090;17.216;2023-03-24T11:37:26;99047.59;;;18.27;45.70
79136;BME280;68533;51.090;17.216;2023-03-24T11:45:29;99038.41;;;18.22;47.08
79136;BME280;68533;51.090;17.216;2023-03-24T11:48:01;99032.47;;;18.47;46.88
79136;BME280;68533;51.090;17.216;2023-03-24T11:50:33;99026.09;;;18.46;47.46
79136;BME280;68533;51.090;17.216;2023-03-24T11:53:24;99041.59;;;18.24;49.45
79136;BME280;68533;51.090;17.216;2023-03-24T11:56:22;99038.75;;;18.21;50.88
79136;BME280;68533;51.090;17.216;2023-03-24T11:58:51;99033.69;;;18.27;50.69
79136;BME280;68533;51.090;17.216;2023-03-24T12:01:33;99033.00;;;17.91;52.54
79136;BME280;68533;51.090;17.216;2023-03-24T12:04:23;99027.94;;;17.42;54.88
79136;BME280;68533;51.090;17.216;2023-03-24T12:20:58;99008.75;;;17.72;50.94
79136;BME280;68533;51.090;17.216;2023-03-24T12:37:46;99015.22;;;17.06;53.61
79136;BME280;68533;51.090;17.216;2023-03-24T12:44:00;99005.91;;;16.99;55.32
79136;BME280;68533;51.090;17.216;2023-03-24T12:51:43;99004.88;;;17.23;53.34
79136;BME280;68533;51.090;17.216;2023-03-24T12:56:49;98995.69;;;17.38;50.64
79136;BME280;68533;51.090;17.216;2023-03-24T12:59:39;98994.69;;;17.46;50.21
79136;BME280;68533;51.090;17.216;2023-03-24T13:02:32;98981.88;;;17.41;50.37
79136;BME280;68533;51.090;17.216;2023-03-24T13:05:07;98983.72;;;17.34;51.54
79136;BME280;68533;51.090;17.216;2023-03-24T13:07:41;98982.38;;;17.28;51.41
79136;BME280;68533;51.090;17.216;2023-03-24T13:10:22;98975.59;;;17.25;51.27
79136;BME280;68533;51.090;17.216;2023-03-24T13:15:55;98968.81;;;17.07;52.07
79136;BME280;68533;51.090;17.216;2023-03-24T13:18:58;98967.31;;;16.94;53.05
79136;BME280;68533;51.090;17.216;2023-03-24T13:21:26;98966.81;;;16.88;53.45
79136;BME280;68533;51.090;17.216;2023-03-24T13:24:07;98970.13;;;16.78;53.59
79136;BME280;68533;51.090;17.216;2023-03-24T13:26:36;98965.66;;;16.74;54.37
79136;BME280;68533;51.090;17.216;2023-03-24T13:31:43;98954.63;;;16.61;54.60
79136;BME280;68533;51.090;17.216;2023-03-24T13:34:30;98953.72;;;16.57;55.17
79136;BME280;68533;51.090;17.216;2023-03-24T13:39:30;98948.53;;;16.56;54.84
79136;BME280;68533;51.090;17.216;2023-03-24T13:41:59;98942.63;;;16.57;54.82
79136;BME280;68533;51.090;17.216;2023-03-24T13:47:09;98938.41;;;16.48;55.55
79136;BME280;68533;51.090;17.216;2023-03-24T13:49:37;98939.06;;;16.41;55.70
79136;BME280;68533;51.090;17.216;2023-03-24T13:52:06;98938.19;;;16.37;56.13
79136;BME280;68533;51.090;17.216;2023-03-24T13:54:48;98940.38;;;16.31;56.63
79136;BME280;68533;51.090;17.216;2023-03-24T13:57:19;98941.47;;;16.27;56.81
79136;BME280;68533;51.090;17.216;2023-03-24T14:08:11;98937.78;;;16.23;56.81
79136;BME280;68533;51.090;17.216;2023-03-24T14:10:43;98942.44;;;16.19;57.01
79136;BME280;68533;51.090;17.216;2023-03-24T14:18:39;98935.75;;;16.36;56.79
79136;BME280;68533;51.090;17.216;2023-03-24T14:21:07;98932.25;;;16.39;56.76
79136;BME280;68533;51.090;17.216;2023-03-24T14:23:45;98920.97;;;16.47;56.69
79136;BME280;68533;51.090;17.216;2023-03-24T14:28:50;98927.84;;;16.53;56.21
79136;BME280;68533;51.090;17.216;2023-03-24T14:36:31;98922.84;;;16.75;54.63
79136;BME280;68533;51.090;17.216;2023-03-24T14:39:08;98932.72;;;16.72;54.40
79136;BME280;68533;51.090;17.216;2023-03-24T14:41:40;98932.06;;;16.79;54.32
79136;BME280;68533;51.090;17.216;2023-03-24T14:44:06;98925.19;;;16.73;54.03
79136;BME280;68533;51.090;17.216;2023-03-24T14:46:43;98924.72;;;16.71;54.43
79136;BME280;68533;51.090;17.216;2023-03-24T14:49:28;98929.47;;;16.70;54.12
79136;BME280;68533;51.090;17.216;2023-03-24T14:54:47;98935.66;;;16.63;54.43
79136;BME280;68533;51.090;17.216;2023-03-24T15:00:22;98926.03;;;16.92;53.15
79136;BME280;68533;51.090;17.216;2023-03-24T15:02:52;98933.44;;;17.04;53.00
79136;BME280;68533;51.090;17.216;2023-03-24T15:10:48;98925.13;;;17.04;52.83
79136;BME280;68533;51.090;17.216;2023-03-24T15:13:27;98921.53;;;17.03;52.61
79136;BME280;68533;51.090;17.216;2023-03-24T15:15:54;98920.19;;;16.97;53.08
79136;BME280;68533;51.090;17.216;2023-03-24T15:18:21;98911.78;;;16.94;52.50
79136;BME280;68533;51.090;17.216;2023-03-24T15:20:48;98914.06;;;16.88;52.73
79136;BME280;68533;51.090;17.216;2023-03-24T15:25:44;98911.47;;;16.80;53.44
79136;BME280;68533;51.090;17.216;2023-03-24T15:28:19;98899.56;;;16.79;53.33
79136;BME280;68533;51.090;17.216;2023-03-24T15:30:52;98897.59;;;16.80;54.07
79136;BME280;68533;51.090;17.216;2023-03-24T15:33:22;98900.81;;;16.82;53.73
79136;BME280;68533;51.090;17.216;2023-03-24T15:35:58;98885.75;;;16.83;53.23
79136;BME280;68533;51.090;17.216;2023-03-24T15:38:32;98898.47;;;16.84;53.00
79136;BME280;68533;51.090;17.216;2023-03-24T15:41:01;98900.19;;;16.73;54.07
79136;BME280;68533;51.090;17.216;2023-03-24T15:43:29;98900.03;;;16.65;53.69
79136;BME280;68533;51.090;17.216;2023-03-24T15:45:57;98903.44;;;16.59;53.71
79136;BME280;68533;51.090;17.216;2023-03-24T15:48:33;98903.78;;;16.57;53.32
79136;BME280;68533;51.090;17.216;2023-03-24T15:51:04;98901.19;;;16.49;53.65
79136;BME280;68533;51.090;17.216;2023-03-24T15:53:47;98900.66;;;16.43;53.44
79136;BME280;68533;51.090;17.216;2023-03-24T15:56:26;98901.09;;;16.45;53.12
79136;BME280;68533;51.090;17.216;2023-03-24T15:58:54;98911.13;;;16.34;54.06
79136;BME280;68533;51.090;17.216;2023-03-24T16:01:25;98908.88;;;16.40;53.08
79136;BME280;68533;51.090;17.216;2023-03-24T16:03:56;98902.00;;;16.34;53.77
79136;BME280;68533;51.090;17.216;2023-03-24T16:06:28;98909.88;;;16.31;53.68